Home > Products > Valid Products > TAF

000
FTUS41 KRLX 281720
TAFPKB
TAF
KPKB 281720Z 2818/2918 24006KT P6SM SCT040
     FM282300 VRB03KT P6SM SCT150
     FM291000 VRB04KT P6SM BKN110
     FM291400 21005KT P6SM BKN035=



000
FTUS41 KRLX 281720
TAFEKN
TAF
KEKN 281720Z 2818/2918 27004KT P6SM SCT045
     FM282100 27005KT P6SM BKN045
     FM291000 00000KT P6SM BKN040
     FM291600 VRB03KT P6SM BKN040=



000
FTUS41 KRLX 281720
TAFHTS
TAF
KHTS 281720Z 2818/2918 21006KT P6SM BKN040
     FM282000 21006KT P6SM VCTS BKN040CB
     FM282300 VRB03KT P6SM SCT150
     FM290800 00000KT P6SM BKN110
     FM291500 22005KT P6SM BKN035=



000
FTUS41 KRLX 281720
TAFCKB
TAF
KCKB 281720Z 2818/2918 27005KT P6SM SCT040
     FM282000 24005KT P6SM VCTS SCT040CB
     FM282300 VRB03KT P6SM SCT045
     FM291600 22005KT P6SM BKN040=



000
FTUS41 KRLX 281500 AAA
TAFEKN
TAF AMD
KEKN 281500Z 2815/2912 21004KT P6SM SCT040=



000
FTUS41 KRLX 281500 AAA
TAFCRW
TAF AMD
KCRW 281500Z 2815/2912 22005KT P6SM SCT120
     FM281800 24006KT P6SM BKN060=



000
FTUS41 KRLX 281038 AAB
TAFPKB
TAF AMD
KPKB 281038Z 2811/2906 23006KT P6SM SCT110
     FM281800 24005KT P6SM SCT040=



000
FTUS41 KRLX 280526
TAFCKB
TAF
KCKB 280526Z 2806/2906 00000KT P6SM SCT200
     FM281500 VRB03KT P6SM SCT040=



000
FTUS41 KRLX 280526
TAFBKW
TAF
KBKW 280526Z 2806/2906 00000KT P6SM SCT250
     FM281400 15007KT P6SM SCT050=



000
FTUS41 KRLX 280526
TAFPKB
TAF
KPKB 280526Z 2806/2906 00000KT 5SM BR SCT110
     FM281300 23006KT P6SM SCT110
     FM281800 24005KT P6SM SCT040=



000
FTUS41 KRLX 280526
TAFHTS
TAF
KHTS 280526Z 2806/2906 00000KT P6SM BKN070
     FM281300 23006KT P6SM SCT045=



000
FTUS41 KRLX 280526
TAFCRW
TAF
KCRW 280526Z 2806/2906 00000KT P6SM SCT100
     FM280900 00000KT 5SM BR BKN200
     FM281200 22005KT P6SM SCT120
     FM282200 24006KT P6SM VCTS BKN060CB
     FM290200 VRB03KT P6SM BKN080=



000
FTUS41 KRLX 280526
TAFEKN
TAF
KEKN 280526Z 2806/2906 00000KT 5SM BR SCT100
     FM280800 00000KT 2SM BR BKN001
     FM281100 00000KT 4SM BR SCT150
     FM281200 21004KT P6SM SCT040=



000
FTUS41 KRLX 280001 AAA
TAFCRW
TAF AMD
KCRW 280001Z 2800/2824 14008KT P6SM VCTS SCT060CB SCT120 SCT250
     FM280100 18004KT P6SM FEW070 SCT120 SCT250
     FM280900 00000KT 4SM BR SCT250
     FM281100 VRB02KT 2SM BR SCT001
     FM281300 VRB02KT P6SM FEW070
     FM282300 VRB02KT 6SM -SHRA VCTS SCT040CB=



000
FTUS41 KRLX 271120
TAFEKN
TAF
KEKN 271120Z 2712/2812 27005KT P6SM SCT060
     FM271800 27004KT P6SM BKN060
     FM280800 00000KT 4SM BR SCT250=



000
FTUS41 KRLX 271120
TAFCKB
TAF
KCKB 271120Z 2712/2812 24006KT P6SM SCT060=



000
FTUS41 KRLX 271120
TAFPKB
TAF
KPKB 271120Z 2712/2812 22005KT P6SM SCT090=



000
FTUS41 KRLX 271120
TAFHTS
TAF
KHTS 271120Z 2712/2812 22005KT P6SM SCT070=



000
FTUS41 KRLX 271120
TAFCRW
TAF
KCRW 271120Z 2712/2812 00000KT 5SM BR FEW001 BKN090
     FM271230 22005KT P6SM SCT090
     FM280900 00000KT 4SM BR BKN200=



000
FTUS41 KRLX 271120
TAFBKW
TAF
KBKW 271120Z 2712/2812 00000KT P6SM BKN060
     FM271300 23006KT P6SM SCT050=



000
FTUS41 KRLX 270520
TAFBKW
TAF
KBKW 270520Z 2706/2806 00000KT P6SM BKN060
     FM271300 23006KT P6SM SCT050 PROB30 2720/2723 3SM TSRA
      BKN050CB=



000
FTUS41 KRLX 262321
TAFBKW
TAF
KBKW 262321Z 2700/2724 21004KT P6SM SCT060
     FM271000 00000KT 5SM BR SCT060
     FM271400 VRB02KT P6SM SCT040
     FM271900 VRB03KT P6SM SHRA VCTS BKN050CB=



000
FTUS41 KRLX 262321
TAFHTS
TAF
KHTS 262321Z 2700/2724 20004KT P6SM SCT050
     FM270900 VRB02KT 4SM BR SCT080
     FM271100 VRB02KT 2SM BR SCT001
     FM271300 VRB03KT P6SM SCT070=



000
FTUS41 KRLX 262321
TAFEKN
TAF
KEKN 262321Z 2700/2724 VRB03KT P6SM BKN050
     FM270700 00000KT 3SM BR BKN050
     FM270900 00000KT 2SM BR SCT001
     FM271200 00000KT 3SM BR SCT001
     FM271300 00000KT P6SM SCT050
     FM271800 29004KT P6SM SHRA VCTS SCT050CB=



000
FTUS41 KRLX 262321
TAFCKB
TAF
KCKB 262321Z 2700/2724 VRB03KT P6SM SCT050
     FM271000 00000KT 4SM BR SCT050
     FM271400 VRB02KT P6SM SCT050
     FM272000 22004KT 5SM SHRA VCTS SCT050CB=



000
FTUS41 KRLX 262321
TAFCRW
TAF
KCRW 262321Z 2700/2724 19004KT P6SM SCT045
     FM270900 VRB02KT 4SM BR SCT070
     FM271100 VRB02KT 2SM BR SCT001
     FM271300 VRB02KT P6SM SCT080=



000
FTUS41 KRLX 262321
TAFPKB
TAF
KPKB 262321Z 2700/2724 20004KT P6SM SCT050
     FM270900 VRB02KT 4SM BR SCT050
     FM271100 VRB02KT 2SM BR SCT001
     FM271300 VRB03KT P6SM SCT050=



000
FTUS41 KRLX 261520 AAA
TAFEKN
TAF AMD
KEKN 261520Z 2615/2712 VRB04KT P6SM BKN045
     FM261700 25006KT P6SM BKN040
     FM270200 00000KT P6SM SCT070
     FM270700 00000KT 5SM BR SCT045
     FM270800 00000KT 2SM BR SCT045=



000
FTUS41 KRLX 261520 AAA
TAFCKB
TAF AMD
KCKB 261520Z 2615/2712 19005KT P6SM SCT100
     FM262300 22004KT P6SM SCT045
     FM270800 00000KT P6SM SCT080
     FM270900 00000KT 5SM BR SCT080=



    US Dept of Commerce
    National Oceanic and Atmospheric Administration
    National Weather Service
    1325 East West Highway
    Silver Spring, MD 20910
    Page Author: NWS Internet Services Team
Disclaimer
Information Quality
Credits
Glossary
Privacy Policy
Freedom of Information Act (FOIA)
About Us
Career Opportunities